Time;durP1;ratioP1;P1;durP2;ratioP2;P2;SDS_P1;SDS_P2;PMS_P1;PMS_P2;Temp;Humidity;BMP_temperature;BMP_pressure;BME280_temperature;BME280_humidity;BME280_pressure;Samples;Min_cycle;Max_cycle;Signal;HPM_P1;HPM_P2
2021/05/16 00:01:21;;;;;;;5.43;1.30;;;15.60;80.10;;;;;;5056843;28;20539;-67
2021/05/16 00:03:48;;;;;;;3.03;1.30;;;15.60;80.00;;;;;;5056215;28;20033;-66
2021/05/16 00:06:14;;;;;;;2.85;1.20;;;15.50;80.30;;;;;;5056524;28;20033;-66
2021/05/16 00:08:40;;;;;;;2.13;0.90;;;15.50;80.70;;;;;;5056506;28;20057;-66
2021/05/16 00:11:06;;;;;;;12.02;1.75;;;15.50;80.60;;;;;;5056453;28;20096;-67
2021/05/16 00:13:31;;;;;;;4.43;1.45;;;15.50;81.40;;;;;;5056043;28;20450;-66
2021/05/16 00:15:57;;;;;;;6.20;1.77;;;15.50;81.40;;;;;;5056239;28;20099;-68
2021/05/16 00:18:23;;;;;;;5.38;1.40;;;15.50;81.70;;;;;;5056316;28;20078;-67
2021/05/16 00:20:49;;;;;;;4.25;1.40;;;15.50;82.00;;;;;;5056506;28;20114;-67
2021/05/16 00:23:15;;;;;;;5.30;1.50;;;15.50;81.70;;;;;;5056487;28;20053;-66
2021/05/16 00:25:41;;;;;;;6.95;1.20;;;15.40;81.10;;;;;;5054806;28;20504;-66
2021/05/16 00:28:07;;;;;;;3.60;1.30;;;15.40;81.50;;;;;;5056163;28;20029;-68
2021/05/16 00:30:33;;;;;;;6.50;1.00;;;15.40;81.70;;;;;;5056262;28;20079;-66
2021/05/16 00:33:00;;;;;;;5.28;1.25;;;15.40;82.50;;;;;;5056082;28;20032;-67
2021/05/16 00:35:32;;;;;;;4.00;1.27;;;15.30;82.80;;;;;;5056405;28;20032;-68
2021/05/16 00:37:59;;;;;;;12.68;2.70;;;15.30;83.20;;;;;;5056204;28;20033;-66
2021/05/16 00:40:25;;;;;;;4.15;1.25;;;15.30;83.10;;;;;;5055781;28;20441;-67
2021/05/16 00:42:51;;;;;;;7.60;1.40;;;15.30;83.40;;;;;;5055638;28;20037;-67
2021/05/16 00:45:22;;;;;;;8.50;1.50;;;15.30;83.40;;;;;;5055842;28;20104;-67
2021/05/16 00:47:56;;;;;;;7.10;1.60;;;15.30;83.90;;;;;;5056129;28;20449;-67
2021/05/16 00:50:24;;;;;;;5.18;1.27;;;15.30;84.10;;;;;;5055756;28;20035;-67
2021/05/16 00:52:50;;;;;;;3.65;1.40;;;15.30;84.20;;;;;;5055907;28;20592;-68
2021/05/16 00:55:18;;;;;;;4.88;1.88;;;15.30;83.60;;;;;;5055531;28;20068;-68
2021/05/16 00:57:44;;;;;;;6.97;1.30;;;15.30;83.20;;;;;;5054722;28;20025;-67
2021/05/16 01:00:13;;;;;;;4.05;1.40;;;15.30;82.90;;;;;;5053047;28;20025;-67
2021/05/16 01:02:38;;;;;;;5.80;1.48;;;15.30;83.10;;;;;;5052902;28;20454;-67
2021/05/16 01:05:06;;;;;;;7.65;1.23;;;15.30;83.10;;;;;;5053984;28;20044;-66
2021/05/16 01:07:34;;;;;;;2.92;1.15;;;15.30;83.40;;;;;;5055664;28;20046;-66
2021/05/16 01:10:00;;;;;;;3.75;1.00;;;15.30;83.30;;;;;;5054019;28;20458;-67
2021/05/16 01:12:32;;;;;;;6.55;1.20;;;15.30;83.40;;;;;;5055453;28;20158;-66
2021/05/16 01:15:02;;;;;;;5.73;1.50;;;15.20;83.30;;;;;;5055584;28;20024;-67
2021/05/16 01:17:28;;;;;;;3.42;1.30;;;15.20;83.40;;;;;;5055352;28;20266;-67
2021/05/16 01:19:53;;;;;;;3.80;1.35;;;15.30;83.60;;;;;;5055062;28;20104;-66
2021/05/16 01:22:19;;;;;;;2.30;1.38;;;15.20;83.70;;;;;;5055053;28;20032;-66
2021/05/16 01:24:48;;;;;;;6.72;1.30;;;15.30;84.30;;;;;;5055292;28;20033;-67
2021/05/16 01:27:15;;;;;;;2.70;1.25;;;15.30;83.70;;;;;;5055293;28;20029;-67
2021/05/16 01:29:42;;;;;;;3.70;1.15;;;15.20;83.00;;;;;;5054804;28;20031;-67
2021/05/16 01:32:11;;;;;;;4.35;1.40;;;15.30;83.50;;;;;;5055254;28;20488;-66
2021/05/16 01:34:43;;;;;;;4.25;1.55;;;15.20;83.30;;;;;;5054975;28;20530;-67
2021/05/16 01:37:13;;;;;;;3.10;1.37;;;15.20;84.10;;;;;;5054732;28;20055;-68
2021/05/16 01:39:39;;;;;;;2.67;1.15;;;15.20;83.70;;;;;;5054901;28;20021;-67
2021/05/16 01:42:06;;;;;;;7.35;1.50;;;15.20;83.40;;;;;;5054811;28;20099;-67
2021/05/16 01:44:33;;;;;;;1.83;1.02;;;15.20;83.10;;;;;;5054598;28;20393;-67
2021/05/16 01:47:02;;;;;;;4.60;1.30;;;15.20;83.30;;;;;;5054664;28;20086;-66
2021/05/16 01:49:51;;;;;;;5.90;1.50;;;15.30;83.90;;;;;;5054850;28;20044;-67
2021/05/16 01:52:17;;;;;;;3.00;1.40;;;15.20;83.60;;;;;;5054384;28;20132;-67
2021/05/16 01:54:43;;;;;;;6.43;1.60;;;15.20;83.60;;;;;;5054608;28;20521;-67
2021/05/16 01:57:09;;;;;;;4.18;1.20;;;15.20;83.60;;;;;;5054524;28;20025;-67
2021/05/16 01:59:36;;;;;;;3.65;1.08;;;15.20;83.20;;;;;;5054049;28;20087;-67
2021/05/16 02:02:04;;;;;;;4.28;1.13;;;15.20;83.10;;;;;;5054785;28;20524;-66
2021/05/16 02:04:32;;;;;;;5.38;1.10;;;15.20;82.90;;;;;;5054322;28;20528;-67
2021/05/16 02:06:59;;;;;;;3.38;1.23;;;15.20;83.00;;;;;;5054291;28;20025;-66
2021/05/16 02:09:28;;;;;;;10.95;1.33;;;15.10;83.10;;;;;;5054221;28;20096;-67
2021/05/16 02:11:54;;;;;;;3.78;1.40;;;15.10;83.20;;;;;;5054290;28;20569;-67
2021/05/16 02:14:31;;;;;;;5.57;1.63;;;15.10;83.30;;;;;;5052925;28;20025;-67
2021/05/16 02:16:59;;;;;;;5.72;2.00;;;15.10;83.80;;;;;;5054350;28;20239;-67
2021/05/16 02:19:24;;;;;;;3.75;1.60;;;15.10;84.10;;;;;;5054334;28;20428;-66
2021/05/16 02:21:51;;;;;;;5.60;1.50;;;15.10;84.60;;;;;;5053517;28;20089;-67
2021/05/16 02:24:18;;;;;;;6.03;1.40;;;15.10;84.70;;;;;;5054041;28;20037;-66
2021/05/16 02:26:43;;;;;;;4.55;1.70;;;15.10;84.80;;;;;;5054045;28;20103;-68
2021/05/16 02:29:10;;;;;;;4.60;1.45;;;15.10;84.70;;;;;;5053814;28;20473;-67
2021/05/16 02:31:36;;;;;;;4.22;1.92;;;15.10;84.80;;;;;;5053478;28;20024;-68
2021/05/16 02:34:02;;;;;;;5.28;1.60;;;15.10;85.00;;;;;;5054203;28;20407;-67
2021/05/16 02:36:28;;;;;;;4.65;1.33;;;15.20;85.10;;;;;;5054038;28;20025;-68
2021/05/16 02:38:54;;;;;;;5.43;1.70;;;15.20;85.10;;;;;;5053760;28;20099;-67
2021/05/16 02:41:20;;;;;;;4.40;1.38;;;15.10;85.20;;;;;;5053635;28;20029;-67
2021/05/16 02:43:46;;;;;;;3.05;1.58;;;15.20;85.30;;;;;;5053567;28;20435;-68
2021/05/16 02:46:12;;;;;;;2.95;1.40;;;15.10;85.60;;;;;;5053611;28;20024;-68
2021/05/16 02:48:39;;;;;;;2.95;1.50;;;15.10;85.50;;;;;;5053275;28;20025;-68
2021/05/16 02:51:05;;;;;;;4.55;1.52;;;15.10;85.60;;;;;;5053045;28;20045;-67
2021/05/16 02:53:30;;;;;;;6.07;1.50;;;15.20;85.60;;;;;;5053266;28;20032;-67
2021/05/16 02:55:56;;;;;;;6.25;1.40;;;15.10;85.30;;;;;;5053652;28;20104;-70
2021/05/16 02:58:22;;;;;;;4.22;1.25;;;15.10;84.80;;;;;;5053385;28;20025;-68
2021/05/16 03:00:47;;;;;;;4.32;1.20;;;15.10;84.70;;;;;;5053076;28;20385;-67
2021/05/16 03:03:13;;;;;;;2.53;1.30;;;15.10;84.20;;;;;;5052877;28;20037;-69
2021/05/16 03:05:39;;;;;;;5.32;1.50;;;15.10;84.40;;;;;;5053358;28;20029;-67
2021/05/16 03:08:05;;;;;;;2.30;1.30;;;15.10;84.70;;;;;;5053335;28;20099;-66
2021/05/16 03:10:31;;;;;;;3.17;1.30;;;15.00;84.80;;;;;;5052938;28;20490;-67
2021/05/16 03:12:56;;;;;;;4.47;1.27;;;15.00;84.70;;;;;;5053283;28;20054;-68
2021/05/16 03:15:22;;;;;;;5.63;1.50;;;15.00;84.80;;;;;;5053108;28;20021;-66
2021/05/16 03:17:48;;;;;;;7.05;1.80;;;15.00;84.80;;;;;;5053224;28;20029;-68
2021/05/16 03:20:14;;;;;;;6.82;1.90;;;15.00;84.90;;;;;;5052929;28;20032;-67
2021/05/16 03:22:40;;;;;;;5.22;1.50;;;15.00;85.10;;;;;;5052986;28;20053;-70
2021/05/16 03:25:09;;;;;;;4.70;1.63;;;15.00;85.30;;;;;;5052821;28;20393;-68
2021/05/16 03:27:35;;;;;;;3.35;1.58;;;15.00;85.20;;;;;;5052737;28;20481;-67
2021/05/16 03:30:01;;;;;;;2.75;1.83;;;15.00;85.10;;;;;;5052770;28;20107;-68
2021/05/16 03:32:27;;;;;;;4.82;1.35;;;14.90;85.10;;;;;;5052707;28;20025;-67
2021/05/16 03:34:53;;;;;;;3.92;1.77;;;15.00;85.00;;;;;;5051848;28;20139;-68
2021/05/16 03:37:18;;;;;;;5.22;1.70;;;14.90;84.90;;;;;;5053110;28;20060;-67
2021/05/16 03:39:44;;;;;;;5.43;1.60;;;14.90;84.90;;;;;;5052853;28;20052;-68
2021/05/16 03:42:10;;;;;;;4.82;1.70;;;14.90;84.80;;;;;;5052791;28;20068;-68
2021/05/16 03:44:35;;;;;;;5.78;1.58;;;14.80;84.80;;;;;;5052706;28;20080;-67
2021/05/16 03:47:02;;;;;;;7.03;1.83;;;14.80;85.00;;;;;;5052883;28;20029;-68
2021/05/16 03:49:28;;;;;;;2.92;1.70;;;14.80;85.00;;;;;;5052713;28;20033;-67
2021/05/16 03:51:54;;;;;;;7.70;1.98;;;14.80;85.00;;;;;;5052432;28;20099;-67
2021/05/16 03:54:19;;;;;;;3.28;1.50;;;14.80;85.00;;;;;;5052561;28;20025;-67
2021/05/16 03:56:45;;;;;;;3.92;1.52;;;14.80;84.80;;;;;;5052437;28;20025;-68
2021/05/16 03:59:11;;;;;;;3.72;1.58;;;14.80;84.90;;;;;;5052553;28;20078;-66
2021/05/16 04:01:37;;;;;;;4.63;1.95;;;14.80;85.30;;;;;;5052594;28;20029;-67
2021/05/16 04:04:03;;;;;;;4.93;1.77;;;14.80;85.60;;;;;;5051094;28;20037;-68
2021/05/16 04:06:29;;;;;;;5.25;1.80;;;14.80;85.50;;;;;;5052493;28;20036;-67
2021/05/16 04:08:55;;;;;;;4.93;1.80;;;14.70;85.60;;;;;;5052470;28;20412;-67
2021/05/16 04:11:21;;;;;;;5.40;1.77;;;14.80;85.60;;;;;;5052562;28;20029;-68
2021/05/16 04:13:47;;;;;;;6.72;1.60;;;14.80;85.50;;;;;;5052557;28;20519;-67
2021/05/16 04:16:12;;;;;;;4.40;1.90;;;14.70;85.40;;;;;;5052321;28;20029;-69
2021/05/16 04:18:38;;;;;;;5.78;1.92;;;14.70;85.50;;;;;;5052417;28;20541;-68
2021/05/16 04:21:05;;;;;;;9.57;2.03;;;14.70;85.50;;;;;;5052536;28;20024;-69
2021/05/16 04:23:32;;;;;;;4.38;2.05;;;14.70;85.70;;;;;;5052386;28;20037;-69
2021/05/16 04:25:58;;;;;;;3.75;1.88;;;14.70;85.60;;;;;;5050970;28;20033;-67
2021/05/16 04:28:23;;;;;;;3.85;1.80;;;14.70;85.70;;;;;;5051961;28;20072;-68
2021/05/16 04:30:49;;;;;;;3.15;1.80;;;14.70;85.60;;;;;;5052186;28;20385;-67
2021/05/16 04:33:15;;;;;;;7.28;1.98;;;14.70;85.70;;;;;;5052349;28;20059;-69
2021/05/16 04:35:42;;;;;;;4.53;1.85;;;14.70;85.70;;;;;;5052197;28;20531;-67
2021/05/16 04:38:07;;;;;;;5.25;1.90;;;14.70;85.50;;;;;;5051963;28;20351;-68
2021/05/16 04:40:33;;;;;;;6.15;1.60;;;14.80;85.40;;;;;;5052304;28;20036;-69
2021/05/16 04:42:59;;;;;;;3.60;1.85;;;14.80;85.40;;;;;;5052224;28;20021;-67
2021/05/16 04:45:25;;;;;;;10.68;1.73;;;14.80;85.20;;;;;;5053594;28;20025;-68
2021/05/16 04:47:51;;;;;;;5.45;2.05;;;14.80;85.10;;;;;;5056019;28;20104;-66
2021/05/16 04:50:18;;;;;;;8.45;2.47;;;;;;;;;;5055520;28;20028;-67
2021/05/16 04:52:45;;;;;;;7.07;2.00;;;14.80;85.00;;;;;;5055706;28;20029;-67
2021/05/16 04:55:13;;;;;;;4.70;2.00;;;14.80;85.40;;;;;;5055588;28;20013;-67
2021/05/16 04:57:39;;;;;;;7.20;2.10;;;14.80;85.60;;;;;;5055429;28;20031;-67
2021/05/16 05:00:06;;;;;;;10.60;2.00;;;14.90;85.50;;;;;;5055484;28;20107;-66
2021/05/16 05:02:36;;;;;;;5.53;1.80;;;14.90;85.80;;;;;;5055648;28;20500;-68
2021/05/16 05:05:03;;;;;;;7.35;1.80;;;14.90;85.50;;;;;;5055586;28;20435;-67
2021/05/16 05:07:29;;;;;;;5.82;1.77;;;14.90;85.50;;;;;;5055436;28;20037;-67
2021/05/16 05:09:55;;;;;;;6.15;1.77;;;15.00;85.40;;;;;;5055426;28;20060;-67
2021/05/16 05:12:21;;;;;;;11.75;2.38;;;15.00;85.20;;;;;;5055355;28;20063;-67
2021/05/16 05:14:47;;;;;;;7.10;2.30;;;15.00;85.40;;;;;;5055425;28;20063;-67
2021/05/16 05:17:12;;;;;;;8.00;1.88;;;15.00;85.40;;;;;;5055338;28;20090;-67
2021/05/16 05:19:38;;;;;;;5.70;1.60;;;15.00;85.30;;;;;;5055392;28;20029;-67
2021/05/16 05:22:04;;;;;;;5.55;1.60;;;15.10;85.40;;;;;;5055503;28;20040;-68
2021/05/16 05:24:30;;;;;;;7.15;1.45;;;15.10;85.40;;;;;;5055360;28;20036;-67
2021/05/16 05:26:55;;;;;;;4.00;1.45;;;15.10;85.90;;;;;;5054972;28;20047;-67
2021/05/16 05:29:21;;;;;;;4.05;1.40;;;15.20;85.80;;;;;;5055042;28;20113;-67
2021/05/16 05:31:47;;;;;;;9.45;1.80;;;15.20;85.60;;;;;;5055143;28;20066;-68
2021/05/16 05:34:13;;;;;;;2.85;1.30;;;15.20;85.70;;;;;;5054997;28;20048;-68
2021/05/16 05:36:38;;;;;;;8.75;1.83;;;15.30;85.70;;;;;;5054705;28;20025;-69
2021/05/16 05:39:05;;;;;;;6.38;1.75;;;15.30;85.70;;;;;;5054898;28;20024;-67
2021/05/16 05:41:31;;;;;;;5.75;1.45;;;15.30;85.60;;;;;;5054737;28;20067;-67
2021/05/16 05:43:56;;;;;;;6.88;1.77;;;15.40;85.60;;;;;;5054744;28;20120;-67
2021/05/16 05:46:22;;;;;;;7.05;1.83;;;15.40;85.70;;;;;;5054849;28;20017;-69
2021/05/16 05:48:48;;;;;;;9.88;1.90;;;15.50;86.10;;;;;;5054755;28;20025;-70
2021/05/16 05:51:14;;;;;;;6.20;2.03;;;15.50;85.30;;;;;;5052865;28;20075;-68
2021/05/16 05:53:40;;;;;;;5.40;1.67;;;15.50;85.30;;;;;;5054620;28;20053;-68
2021/05/16 05:56:06;;;;;;;4.75;1.95;;;15.60;85.10;;;;;;5054225;28;20029;-67
2021/05/16 05:58:35;;;;;;;6.20;1.73;;;15.60;85.00;;;;;;5054132;28;20024;-66
2021/05/16 06:01:03;;;;;;;10.70;1.60;;;15.60;85.00;;;;;;5054477;28;20539;-66
2021/05/16 06:03:29;;;;;;;7.32;1.65;;;15.70;84.80;;;;;;5054297;28;20032;-67
2021/05/16 06:05:55;;;;;;;8.93;1.52;;;15.70;84.90;;;;;;5054401;28;20021;-67
2021/05/16 06:08:21;;;;;;;7.35;1.50;;;15.80;85.10;;;;;;5054300;28;20469;-67
2021/05/16 06:10:47;;;;;;;5.75;1.55;;;15.80;85.00;;;;;;5054049;28;20025;-68
2021/05/16 06:13:13;;;;;;;6.45;1.83;;;15.80;84.90;;;;;;5053949;28;20021;-68
2021/05/16 06:15:39;;;;;;;7.15;1.63;;;15.90;84.80;;;;;;5051606;28;20021;-68
2021/05/16 06:18:06;;;;;;;12.13;1.88;;;15.90;85.00;;;;;;5051339;28;20059;-67
2021/05/16 06:20:32;;;;;;;4.32;2.03;;;15.90;85.10;;;;;;5054471;28;20037;-67
2021/05/16 06:23:01;;;;;;;5.95;1.40;;;16.00;84.80;;;;;;5054448;28;20035;-67
2021/05/16 06:25:26;;;;;;;4.47;1.58;;;15.90;84.60;;;;;;5051658;28;20599;-68
2021/05/16 06:27:52;;;;;;;9.70;1.40;;;15.90;84.60;;;;;;5051534;28;20021;-67
2021/05/16 06:30:20;;;;;;;10.85;1.60;;;15.90;84.50;;;;;;5053188;28;20025;-67
2021/05/16 06:32:46;;;;;;;7.43;1.55;;;16.00;84.40;;;;;;5053670;28;20021;-68
2021/05/16 06:35:12;;;;;;;7.63;1.58;;;16.00;84.30;;;;;;5054045;28;20032;-68
2021/05/16 06:37:38;;;;;;;5.70;1.55;;;16.00;84.40;;;;;;5053872;28;20048;-68
2021/05/16 06:40:05;;;;;;;6.65;1.40;;;16.00;84.10;;;;;;5053869;28;20394;-69
2021/05/16 06:42:31;;;;;;;6.00;1.50;;;16.00;84.00;;;;;;5053106;28;20036;-69
2021/05/16 06:44:56;;;;;;;6.80;2.00;;;16.00;83.80;;;;;;5051966;28;20036;-70
2021/05/16 06:47:23;;;;;;;8.13;1.60;;;16.10;84.20;;;;;;5053672;28;20473;-69
2021/05/16 06:49:52;;;;;;;4.88;1.67;;;16.10;84.20;;;;;;5053885;28;20500;-67
2021/05/16 06:52:18;;;;;;;2.50;1.27;;;16.20;84.40;;;;;;5053479;28;20519;-66
2021/05/16 06:54:43;;;;;;;4.25;1.48;;;16.30;84.70;;;;;;5053616;28;20366;-68
2021/05/16 06:57:09;;;;;;;6.90;1.45;;;16.40;84.90;;;;;;5053495;28;20086;-67
2021/05/16 06:59:35;;;;;;;9.75;1.67;;;16.40;84.70;;;;;;5053438;28;20421;-68
2021/05/16 07:02:00;;;;;;;7.70;1.55;;;16.40;84.30;;;;;;5053727;28;20021;-68
2021/05/16 07:04:26;;;;;;;8.88;1.52;;;16.50;84.10;;;;;;5053350;28;20496;-67
2021/05/16 07:06:52;;;;;;;5.93;1.65;;;16.50;84.00;;;;;;5053570;28;20028;-67
2021/05/16 07:09:17;;;;;;;9.85;1.52;;;16.60;84.30;;;;;;5053166;28;20100;-69
2021/05/16 07:11:43;;;;;;;9.77;1.70;;;16.60;84.20;;;;;;5053462;28;20029;-68
2021/05/16 07:14:09;;;;;;;6.28;1.30;;;16.60;83.90;;;;;;5053367;28;20032;-68
2021/05/16 07:16:34;;;;;;;7.90;1.45;;;16.70;83.70;;;;;;5053298;28;20465;-67
2021/05/16 07:19:02;;;;;;;7.95;2.60;;;16.80;84.20;;;;;;5053154;28;20150;-67
2021/05/16 07:21:27;;;;;;;6.35;1.77;;;16.90;85.10;;;;;;5053019;28;20033;-68
2021/05/16 07:23:53;;;;;;;7.80;1.38;;;17.00;84.50;;;;;;5053002;28;20120;-67
2021/05/16 07:26:19;;;;;;;7.78;1.63;;;17.00;84.10;;;;;;5052948;28;20103;-68
2021/05/16 07:28:45;;;;;;;7.68;1.50;;;17.20;83.90;;;;;;5052580;28;20021;-68
2021/05/16 07:31:12;;;;;;;12.00;1.58;;;17.20;83.30;;;;;;5052918;28;20045;-68
2021/05/16 07:33:39;;;;;;;9.02;1.55;;;17.20;82.80;;;;;;5052817;28;20060;-68
2021/05/16 07:36:05;;;;;;;11.82;1.50;;;17.20;81.90;;;;;;5052441;28;20032;-68
2021/05/16 07:38:32;;;;;;;10.40;1.55;;;17.30;81.40;;;;;;5052697;28;20070;-69
2021/05/16 07:40:58;;;;;;;7.70;1.50;;;17.40;81.70;;;;;;5051530;28;20568;-68
2021/05/16 07:43:25;;;;;;;5.22;1.48;;;17.40;81.40;;;;;;5051166;28;20123;-67
2021/05/16 07:45:52;;;;;;;8.77;1.50;;;17.50;81.80;;;;;;5052838;28;20025;-67
2021/05/16 07:48:18;;;;;;;8.10;1.17;;;17.50;81.90;;;;;;5052797;28;20021;-68
2021/05/16 07:50:44;;;;;;;6.03;1.40;;;17.50;81.10;;;;;;5052920;28;20049;-69
2021/05/16 07:53:10;;;;;;;8.43;1.38;;;17.60;80.60;;;;;;5053019;28;20025;-68
2021/05/16 07:55:41;;;;;;;6.80;1.20;;;17.60;80.70;;;;;;5052847;28;20025;-69
2021/05/16 07:58:06;;;;;;;3.97;1.20;;;17.70;80.80;;;;;;5052680;28;20017;-69
2021/05/16 08:00:32;;;;;;;4.10;1.20;;;17.80;80.80;;;;;;5052694;28;20029;-68
2021/05/16 08:02:58;;;;;;;8.13;1.50;;;17.90;82.00;;;;;;5052686;28;20017;-68
2021/05/16 08:05:24;;;;;;;6.72;1.40;;;18.00;81.00;;;;;;5052712;28;20029;-68
2021/05/16 08:07:49;;;;;;;6.57;1.45;;;18.20;80.80;;;;;;5052644;28;20366;-68
2021/05/16 08:10:19;;;;;;;7.22;1.58;;;18.30;80.50;;;;;;5052679;28;20029;-69
2021/05/16 08:12:45;;;;;;;8.13;1.42;;;18.40;79.30;;;;;;5052905;28;20033;-69
2021/05/16 08:15:12;;;;;;;11.70;1.80;;;18.40;78.40;;;;;;5052552;28;20477;-68
2021/05/16 08:17:37;;;;;;;6.10;1.27;;;18.50;76.60;;;;;;5052663;28;20029;-68
2021/05/16 08:20:05;;;;;;;6.78;1.60;;;18.40;77.40;;;;;;5053625;28;20020;-69
2021/05/16 08:22:31;;;;;;;5.18;1.48;;;18.40;77.30;;;;;;5056045;28;20374;-69
2021/05/16 08:24:57;;;;;;;5.80;1.20;;;18.40;77.10;;;;;;5056270;28;20096;-71
2021/05/16 08:27:22;;;;;;;5.93;1.30;;;18.30;76.70;;;;;;5056132;28;20056;-71
2021/05/16 08:29:48;;;;;;;5.60;1.52;;;18.30;77.10;;;;;;5056226;28;20055;-71
2021/05/16 08:32:14;;;;;;;6.80;1.27;;;18.20;76.70;;;;;;5056502;28;20079;-63
2021/05/16 08:34:41;;;;;;;4.70;1.50;;;18.10;76.80;;;;;;5053002;28;20184;-66
2021/05/16 08:37:09;;;;;;;12.48;2.42;;;18.10;77.50;;;;;;5053260;28;20052;-69
2021/05/16 08:39:35;;;;;;;4.55;1.60;;;18.10;77.90;;;;;;5055080;28;20485;-68
2021/05/16 08:42:01;;;;;;;6.60;1.20;;;18.00;77.60;;;;;;5056190;28;20040;-67
2021/05/16 08:44:26;;;;;;;7.45;1.45;;;18.00;77.40;;;;;;5055881;28;20084;-67
2021/05/16 08:46:53;;;;;;;7.28;1.25;;;18.00;77.20;;;;;;5056162;28;20017;-67
2021/05/16 08:49:19;;;;;;;9.57;1.38;;;18.00;76.50;;;;;;5056113;28;20017;-67
2021/05/16 08:51:49;;;;;;;19.77;3.67;;;18.00;76.90;;;;;;5055993;28;20124;-66
2021/05/16 08:54:19;;;;;;;6.28;1.40;;;18.10;77.20;;;;;;5055883;28;20033;-66
2021/05/16 08:56:50;;;;;;;5.57;0.90;;;18.10;77.20;;;;;;5055778;28;20044;-66
2021/05/16 08:59:16;;;;;;;5.40;1.08;;;18.10;73.00;;;;;;5053020;28;20029;-66
2021/05/16 09:01:47;;;;;;;5.18;1.23;;;18.20;74.30;;;;;;5051337;28;20116;-66
2021/05/16 09:04:34;;;;;;;5.80;1.10;;;18.30;72.40;;;;;;5052512;28;20037;-66
2021/05/16 09:07:01;;;;;;;5.28;1.20;;;18.40;72.40;;;;;;5055396;28;20021;-66
2021/05/16 09:09:39;;;;;;;5.95;1.60;;;18.40;72.00;;;;;;5055717;28;20427;-66
2021/05/16 09:12:14;;;;;;;4.22;1.10;;;18.50;70.40;;;;;;5055671;28;20385;-66
2021/05/16 09:15:01;;;;;;;6.20;1.00;;;18.60;68.60;;;;;;5055281;28;20426;-65
2021/05/16 09:17:33;;;;;;;5.28;1.30;;;18.60;68.00;;;;;;5055578;28;20023;-66
2021/05/16 09:20:03;;;;;;;3.58;1.08;;;18.70;69.30;;;;;;5055504;28;20021;-65
2021/05/16 09:22:34;;;;;;;4.85;1.30;;;18.80;70.40;;;;;;5055688;28;20090;-66
2021/05/16 09:25:16;;;;;;;4.45;1.10;;;18.90;68.90;;;;;;5055409;28;20045;-66
2021/05/16 09:27:47;;;;;;;4.22;1.23;;;18.90;67.70;;;;;;5053739;28;20032;-66
2021/05/16 09:30:19;;;;;;;4.28;1.15;;;18.90;66.90;;;;;;5055440;28;20466;-66
2021/05/16 09:32:49;;;;;;;5.25;1.33;;;18.80;66.50;;;;;;5055447;28;20107;-66
2021/05/16 09:35:15;;;;;;;11.20;1.10;;;18.80;69.30;;;;;;5055157;28;20366;-66
2021/05/16 09:38:00;;;;;;;4.13;0.90;;;18.70;67.90;;;;;;5055367;28;20108;-66
2021/05/16 09:40:30;;;;;;;5.90;1.05;;;18.60;68.90;;;;;;5055225;28;20032;-66
2021/05/16 09:43:16;;;;;;;4.85;0.93;;;18.50;68.70;;;;;;5055387;28;20049;-66
2021/05/16 09:46:01;;;;;;;3.88;0.98;;;18.50;68.10;;;;;;5055225;28;20029;-66
2021/05/16 09:48:37;;;;;;;2.13;0.80;;;18.50;68.20;;;;;;5055091;28;20040;-66
2021/05/16 09:51:07;;;;;;;5.47;1.00;;;18.40;69.40;;;;;;5054605;28;20105;-66
2021/05/16 09:53:44;;;;;;;3.55;1.23;;;18.30;70.00;;;;;;5054862;28;20465;-66
2021/05/16 09:56:14;;;;;;;4.38;1.15;;;18.30;70.10;;;;;;5055054;28;20096;-66
2021/05/16 09:58:40;;;;;;;7.53;1.20;;;18.20;70.40;;;;;;5054880;28;20058;-66
2021/05/16 10:01:07;;;;;;;8.15;1.45;;;18.20;71.30;;;;;;5054816;28;20025;-66
2021/05/16 10:03:34;;;;;;;3.58;0.80;;;18.30;71.50;;;;;;5054403;28;20044;-66
2021/05/16 10:06:01;;;;;;;6.95;1.23;;;18.30;72.10;;;;;;5054879;28;20504;-66
2021/05/16 10:08:28;;;;;;;5.70;1.10;;;18.30;71.50;;;;;;5054688;28;20029;-66
2021/05/16 10:10:54;;;;;;;5.10;0.95;;;18.50;72.10;;;;;;5054633;28;20021;-66
2021/05/16 10:13:22;;;;;;;5.80;1.20;;;18.50;71.50;;;;;;5054717;28;20053;-66
2021/05/16 10:15:48;;;;;;;8.68;1.15;;;18.60;71.60;;;;;;5054650;28;20429;-66
2021/05/16 10:18:15;;;;;;;3.72;1.42;;;18.60;71.30;;;;;;5054382;28;20029;-66
2021/05/16 10:20:42;;;;;;;4.60;1.02;;;18.70;71.10;;;;;;5054688;28;20067;-66
2021/05/16 10:23:10;;;;;;;5.55;1.20;;;18.70;71.20;;;;;;5054408;28;20091;-66
2021/05/16 10:25:43;;;;;;;4.22;0.90;;;18.80;69.30;;;;;;5054482;28;20040;-66
2021/05/16 10:28:15;;;;;;;4.15;1.00;;;18.80;69.60;;;;;;5054246;28;20048;-66
2021/05/16 10:31:01;;;;;;;6.43;1.13;;;18.90;69.60;;;;;;5054469;28;20404;-66
2021/05/16 10:33:34;;;;;;;7.53;1.38;;;18.90;69.70;;;;;;5054357;28;20065;-66
2021/05/16 10:36:00;;;;;;;3.42;0.85;;;18.90;70.00;;;;;;5054302;28;20017;-66
2021/05/16 10:38:52;;;;;;;3.15;1.17;;;19.00;72.40;;;;;;5054141;28;20057;-66
2021/05/16 10:41:18;;;;;;;4.68;1.05;;;19.00;71.80;;;;;;5051911;28;20037;-66
2021/05/16 10:43:45;;;;;;;7.85;1.27;;;19.10;70.30;;;;;;5053600;28;20069;-66
2021/05/16 10:46:37;;;;;;;4.55;1.33;;;19.10;69.50;;;;;;5054140;28;20021;-66
2021/05/16 10:49:25;;;;;;;9.20;1.60;;;19.00;71.80;;;;;;5050734;28;20382;-66
2021/05/16 10:51:51;;;;;;;7.57;1.50;;;19.00;72.50;;;;;;5053569;28;20053;-66
2021/05/16 10:54:26;;;;;;;8.32;1.42;;;18.90;73.10;;;;;;5053479;28;20033;-66
2021/05/16 10:57:11;;;;;;;6.35;1.45;;;19.00;73.60;;;;;;5053538;28;20482;-66
2021/05/16 10:59:40;;;;;;;8.85;1.70;;;18.90;73.50;;;;;;5050573;28;20033;-66
2021/05/16 11:02:06;;;;;;;7.43;1.65;;;18.90;73.40;;;;;;5049965;28;20385;-66
2021/05/16 11:04:46;;;;;;;7.53;1.50;;;19.00;73.30;;;;;;5050390;28;20051;-66
2021/05/16 11:07:31;;;;;;;6.53;1.35;;;18.90;73.00;;;;;;5051038;28;20029;-66
2021/05/16 11:10:29;;;;;;;3.67;0.88;;;18.90;71.70;;;;;;5052939;28;20025;-66
2021/05/16 11:13:13;;;;;;;11.52;1.33;;;18.80;70.20;;;;;;5051129;28;20033;-66
2021/05/16 11:15:53;;;;;;;6.32;1.17;;;18.70;70.70;;;;;;5052833;28;20472;-66
2021/05/16 11:18:22;;;;;;;3.55;1.20;;;18.70;71.40;;;;;;5051585;28;20076;-66
2021/05/16 11:20:56;;;;;;;4.68;1.27;;;18.70;72.10;;;;;;5050466;28;20027;-66
2021/05/16 11:23:36;;;;;;;3.90;0.95;;;18.70;72.20;;;;;;5050404;28;20096;-66
2021/05/16 11:26:05;;;;;;;7.32;1.45;;;18.70;69.80;;;;;;5052878;28;20075;-66
2021/05/16 11:28:58;;;;;;;6.68;1.00;;;18.80;70.80;;;;;;5053103;28;20017;-66
2021/05/16 11:31:26;;;;;;;7.22;0.93;;;18.80;70.30;;;;;;5053133;28;20025;-66
2021/05/16 11:33:54;;;;;;;5.38;1.00;;;18.90;67.20;;;;;;5053125;28;20031;-66
2021/05/16 11:36:25;;;;;;;5.20;1.25;;;18.90;67.60;;;;;;5052980;28;20525;-66
2021/05/16 11:38:54;;;;;;;3.63;0.98;;;18.90;66.50;;;;;;5052944;28;20478;-66
2021/05/16 11:41:46;;;;;;;4.28;0.93;;;18.80;66.80;;;;;;5053443;28;20037;-66
2021/05/16 11:44:14;;;;;;;5.82;0.98;;;18.90;66.70;;;;;;5051693;28;20489;-66
2021/05/16 11:46:44;;;;;;;6.53;1.40;;;18.90;66.80;;;;;;5052921;28;20025;-66
2021/05/16 11:49:12;;;;;;;5.68;1.00;;;19.00;67.40;;;;;;5052843;28;20074;-66
2021/05/16 11:51:38;;;;;;;6.43;2.15;;;19.10;68.00;;;;;;5052446;28;20041;-66
2021/05/16 11:54:07;;;;;;;6.10;1.10;;;19.10;66.40;;;;;;5052794;28;20040;-65
2021/05/16 11:56:38;;;;;;;5.82;1.05;;;19.10;68.10;;;;;;5056457;28;20017;-66
2021/05/16 11:59:05;;;;;;;6.00;1.25;;;19.20;68.30;;;;;;5057191;28;20048;-66
2021/05/16 12:01:42;;;;;;;3.03;0.90;;;19.20;68.10;;;;;;5056516;28;20027;-66
2021/05/16 12:04:12;;;;;;;7.13;1.10;;;19.30;68.20;;;;;;5056819;28;20035;-66
2021/05/16 12:07:07;;;;;;;7.80;1.30;;;19.30;67.10;;;;;;5056838;28;20095;-66
2021/05/16 12:09:40;;;;;;;7.78;1.42;;;19.20;67.00;;;;;;5052080;28;20477;-66
2021/05/16 12:12:27;;;;;;;4.72;1.20;;;19.20;67.40;;;;;;5056654;28;20048;-65
2021/05/16 12:14:56;;;;;;;9.27;1.00;;;19.20;67.40;;;;;;5055186;28;20020;-66
2021/05/16 12:17:33;;;;;;;3.38;0.70;;;19.20;67.60;;;;;;5056661;28;20029;-66
2021/05/16 12:19:59;;;;;;;6.13;1.10;;;19.30;67.80;;;;;;5056518;28;20028;-66
2021/05/16 12:22:34;;;;;;;5.80;1.00;;;19.30;68.10;;;;;;5056385;28;20033;-66
2021/05/16 12:25:01;;;;;;;6.53;1.13;;;19.30;66.40;;;;;;5056524;28;20465;-66
2021/05/16 12:27:26;;;;;;;4.22;0.98;;;19.30;66.10;;;;;;5056383;28;20029;-66
2021/05/16 12:29:52;;;;;;;5.05;1.20;;;19.40;66.90;;;;;;5056203;28;20462;-66
2021/05/16 12:32:36;;;;;;;5.95;1.10;;;19.30;67.50;;;;;;5056322;28;20068;-66
2021/05/16 12:35:02;;;;;;;3.80;1.13;;;19.30;65.90;;;;;;5056280;28;20416;-66
2021/05/16 12:37:29;;;;;;;5.70;1.33;;;19.30;67.40;;;;;;5055978;28;20025;-66
2021/05/16 12:39:57;;;;;;;9.77;1.30;;;19.20;65.40;;;;;;5055282;28;20037;-66
2021/05/16 12:42:32;;;;;;;7.00;1.60;;;19.20;67.30;;;;;;5053550;28;20515;-66
2021/05/16 12:45:22;;;;;;;7.97;1.33;;;19.10;68.60;;;;;;5054036;28;20032;-63
2021/05/16 12:48:07;;;;;;;5.28;1.48;;;19.10;69.50;;;;;;5055934;28;20029;-66
2021/05/16 12:50:38;;;;;;;7.20;1.58;;;19.10;69.10;;;;;;5055947;28;20025;-66
2021/05/16 12:53:24;;;;;;;7.57;1.10;;;19.10;68.50;;;;;;5056223;28;20040;-66